createdAt,value
2022-10-18T00:00:09.516Z,15.7
2022-10-18T00:03:09.561Z,15.6
2022-10-18T00:06:09.531Z,15.6
2022-10-18T00:09:09.522Z,15.5
2022-10-18T00:12:09.538Z,15.5
2022-10-18T00:15:09.557Z,15.5
2022-10-18T00:18:09.528Z,15.4
2022-10-18T00:21:09.498Z,15.4
2022-10-18T00:24:09.497Z,15.4
2022-10-18T00:27:09.500Z,15.4
2022-10-18T00:30:09.568Z,15.4
2022-10-18T00:33:09.497Z,15.3
2022-10-18T00:36:09.548Z,15.3
2022-10-18T00:39:09.574Z,15.3
2022-10-18T00:42:09.454Z,15.3
2022-10-18T00:45:09.488Z,15.3
2022-10-18T00:48:09.509Z,15.3
2022-10-18T00:51:09.555Z,15.3
2022-10-18T00:54:09.496Z,15.3
2022-10-18T00:57:09.510Z,15.3
2022-10-18T01:00:09.546Z,15.3
2022-10-18T01:03:09.518Z,15.3
2022-10-18T01:06:09.458Z,15.3
2022-10-18T01:09:09.526Z,15.3
2022-10-18T01:12:09.473Z,15.3
2022-10-18T01:15:09.523Z,15.2
2022-10-18T01:18:09.535Z,15.2
2022-10-18T01:21:09.481Z,15.2
2022-10-18T01:24:09.474Z,15.2
2022-10-18T01:27:09.515Z,15.1
2022-10-18T01:30:09.620Z,15.1
2022-10-18T01:33:09.544Z,15.1
2022-10-18T01:36:09.478Z,15
2022-10-18T01:39:09.511Z,15
2022-10-18T01:42:09.522Z,15
2022-10-18T01:45:09.587Z,14.9
2022-10-18T01:48:09.570Z,14.9
2022-10-18T01:51:09.508Z,15
2022-10-18T01:54:09.533Z,14.9
2022-10-18T01:57:09.546Z,14.9
2022-10-18T02:00:09.638Z,15
2022-10-18T02:03:09.561Z,14.9
2022-10-18T02:06:09.568Z,14.9
2022-10-18T02:09:09.539Z,14.9
2022-10-18T02:12:09.714Z,14.9
2022-10-18T02:15:09.710Z,14.9
2022-10-18T02:18:09.493Z,14.8
2022-10-18T02:21:09.468Z,14.8
2022-10-18T02:24:09.595Z,14.8
2022-10-18T02:27:09.496Z,14.9
2022-10-18T02:30:09.608Z,14.8
2022-10-18T02:33:09.510Z,14.7
2022-10-18T02:36:09.529Z,14.7
2022-10-18T02:39:09.446Z,14.7
2022-10-18T02:42:09.535Z,14.7
2022-10-18T02:45:09.488Z,14.6
2022-10-18T02:48:09.505Z,14.6
2022-10-18T02:51:09.460Z,14.6
2022-10-18T02:54:09.535Z,14.6
2022-10-18T02:57:09.489Z,14.6
2022-10-18T03:00:09.459Z,14.6
2022-10-18T03:03:09.496Z,14.6
2022-10-18T03:06:09.544Z,14.5
2022-10-18T03:09:09.499Z,14.5
2022-10-18T03:12:09.489Z,14.4
2022-10-18T03:15:09.528Z,14.4
2022-10-18T03:18:09.569Z,14.4
2022-10-18T03:21:09.559Z,14.4
2022-10-18T03:24:09.522Z,14.4
2022-10-18T03:27:09.527Z,14.3
2022-10-18T03:30:09.538Z,14.3
2022-10-18T03:33:09.583Z,14.3
2022-10-18T03:36:09.512Z,14.3
2022-10-18T03:39:09.536Z,14.3
2022-10-18T03:42:09.501Z,14.3
2022-10-18T03:45:09.522Z,14.3
2022-10-18T03:48:09.588Z,14.2
2022-10-18T03:51:09.456Z,14.1
2022-10-18T03:54:09.650Z,14.1
2022-10-18T03:57:09.438Z,14.1
2022-10-18T04:00:09.634Z,14.1
2022-10-18T04:03:09.511Z,14
2022-10-18T04:06:09.502Z,14
2022-10-18T04:09:14.766Z,14
2022-10-18T04:12:09.500Z,14
2022-10-18T04:15:09.508Z,13.9
2022-10-18T04:18:09.532Z,14
2022-10-18T04:21:09.495Z,14
2022-10-18T04:24:09.551Z,13.9
2022-10-18T04:27:09.559Z,13.9
2022-10-18T04:30:09.511Z,13.9
2022-10-18T04:33:09.616Z,13.9
2022-10-18T04:36:09.539Z,13.9
2022-10-18T04:39:09.501Z,13.9
2022-10-18T04:42:09.513Z,13.9
2022-10-18T04:45:09.575Z,13.9
2022-10-18T04:48:09.545Z,13.8
2022-10-18T04:51:09.566Z,13.8
2022-10-18T04:54:09.657Z,13.8
2022-10-18T04:57:09.514Z,13.8
2022-10-18T05:00:09.577Z,13.7
2022-10-18T05:03:09.500Z,13.8
2022-10-18T05:06:12.330Z,13.8
2022-10-18T05:09:10.227Z,13.8
2022-10-18T05:12:09.502Z,13.8
2022-10-18T05:15:09.475Z,13.8
2022-10-18T05:18:09.583Z,13.8
2022-10-18T05:21:09.528Z,13.8
2022-10-18T05:24:09.495Z,13.8
2022-10-18T05:27:09.535Z,13.8
2022-10-18T05:30:14.780Z,13.8
2022-10-18T05:33:09.508Z,13.8
2022-10-18T05:36:09.544Z,13.8
2022-10-18T05:39:13.848Z,13.8
2022-10-18T05:42:09.530Z,13.9
2022-10-18T05:45:09.526Z,13.8
2022-10-18T05:48:09.534Z,13.9
2022-10-18T05:51:09.538Z,13.9
2022-10-18T05:54:09.490Z,13.9
2022-10-18T05:57:09.661Z,13.9
2022-10-18T06:00:09.748Z,13.9
2022-10-18T06:03:09.838Z,13.9
2022-10-18T06:06:09.616Z,13.9
2022-10-18T06:09:09.611Z,13.9
2022-10-18T06:12:09.560Z,14
2022-10-18T06:15:09.613Z,14
2022-10-18T06:18:09.491Z,14
2022-10-18T06:21:09.564Z,14.1
2022-10-18T06:24:09.578Z,14
2022-10-18T06:27:10.771Z,14
2022-10-18T06:30:09.547Z,14
2022-10-18T06:33:09.524Z,14
2022-10-18T06:36:09.600Z,14.1
2022-10-18T06:39:09.516Z,14.1
2022-10-18T06:42:09.524Z,14.1
2022-10-18T06:45:09.586Z,14.2
2022-10-18T06:48:09.853Z,14.1
2022-10-18T06:51:09.529Z,14.1
2022-10-18T06:54:27.427Z,14.1
2022-10-18T06:57:09.585Z,14.1
2022-10-18T07:00:09.640Z,14.1
2022-10-18T07:03:09.615Z,14.1
2022-10-18T07:06:09.635Z,14.1
2022-10-18T07:09:09.605Z,14.2
2022-10-18T07:12:09.536Z,14.2
2022-10-18T07:15:16.173Z,14.2
2022-10-18T07:18:09.531Z,14.2
2022-10-18T07:21:09.594Z,14.2
2022-10-18T07:24:09.518Z,14.2
2022-10-18T07:27:09.633Z,14.3
2022-10-18T07:30:09.631Z,14.3
2022-10-18T07:33:09.619Z,14.3
2022-10-18T07:36:09.528Z,14.3
2022-10-18T07:39:09.696Z,14.2
2022-10-18T07:42:09.573Z,14.3
2022-10-18T07:45:09.489Z,14.3
2022-10-18T07:48:09.579Z,14.3
2022-10-18T07:51:09.580Z,14.4
2022-10-18T07:54:09.566Z,14.4
2022-10-18T07:57:09.724Z,14.4
2022-10-18T08:00:09.660Z,14.5
2022-10-18T08:03:09.552Z,14.5
2022-10-18T08:06:09.615Z,14.6
2022-10-18T08:09:09.519Z,14.6
2022-10-18T08:12:09.666Z,14.6
2022-10-18T08:15:09.621Z,14.7
2022-10-18T08:18:09.659Z,14.7
2022-10-18T08:21:09.553Z,14.7
2022-10-18T08:24:09.530Z,14.8
2022-10-18T08:27:09.582Z,14.9
2022-10-18T08:30:09.863Z,14.9
2022-10-18T08:33:09.535Z,15
2022-10-18T08:36:09.560Z,15.1
2022-10-18T08:39:09.574Z,15.3
2022-10-18T08:42:09.502Z,15.3
2022-10-18T08:45:48.566Z,15.4
2022-10-18T08:48:09.569Z,15.4
2022-10-18T08:51:09.620Z,15.5
2022-10-18T08:54:09.576Z,15.7
2022-10-18T08:57:09.559Z,15.8
2022-10-18T09:00:09.621Z,15.9
2022-10-18T09:03:09.893Z,16.1
2022-10-18T09:06:09.625Z,16.1
2022-10-18T09:09:09.558Z,16.3
2022-10-18T09:12:11.217Z,16.1
2022-10-18T09:15:09.543Z,16.1
2022-10-18T09:18:09.734Z,16.1
2022-10-18T09:21:09.618Z,16
2022-10-18T09:24:09.708Z,16
2022-10-18T09:27:09.589Z,16
2022-10-18T09:30:09.638Z,16
2022-10-18T09:33:09.561Z,16.1
2022-10-18T09:36:09.579Z,16.2
2022-10-18T09:39:09.750Z,16.2
2022-10-18T09:42:09.624Z,16.2
2022-10-18T09:45:09.585Z,16.2
2022-10-18T09:48:09.745Z,16.3
2022-10-18T09:51:09.589Z,16.3
2022-10-18T09:54:09.590Z,16.2
2022-10-18T09:57:09.609Z,16.2
2022-10-18T10:00:09.667Z,16.1
2022-10-18T10:03:09.530Z,16
2022-10-18T10:06:09.630Z,15.9
2022-10-18T10:09:09.575Z,15.9
2022-10-18T10:12:09.572Z,15.9
2022-10-18T10:15:09.509Z,15.9
2022-10-18T10:18:09.662Z,16.1
2022-10-18T10:21:09.739Z,16.1
2022-10-18T10:24:09.576Z,16.1
2022-10-18T10:27:09.570Z,16.1
2022-10-18T10:30:16.057Z,16.2
2022-10-18T10:33:09.535Z,16.2
2022-10-18T10:36:09.544Z,16.3
2022-10-18T10:39:09.860Z,16.3
2022-10-18T10:42:15.877Z,16.2
2022-10-18T10:45:09.593Z,16.3
2022-10-18T10:48:09.677Z,16.3
2022-10-18T10:51:09.520Z,16.3
2022-10-18T10:54:09.591Z,16.3
2022-10-18T10:57:09.656Z,16.4
2022-10-18T11:00:09.816Z,16.4
2022-10-18T11:03:37.578Z,16.4
2022-10-18T11:06:09.863Z,16.4
2022-10-18T11:09:09.563Z,16.4
2022-10-18T11:12:09.664Z,16.4
2022-10-18T11:15:09.581Z,16.5
2022-10-18T11:18:09.777Z,16.5
2022-10-18T11:21:09.567Z,16.4
2022-10-18T11:24:09.543Z,16.5
2022-10-18T11:27:09.618Z,16.6
2022-10-18T11:30:09.622Z,16.8
2022-10-18T11:33:09.534Z,17.1
2022-10-18T11:36:12.887Z,17.1
2022-10-18T11:39:09.683Z,16.9
2022-10-18T11:42:09.553Z,17
2022-10-18T11:45:09.741Z,17.4
2022-10-18T11:48:10.265Z,17.6
2022-10-18T11:51:09.550Z,17.6
2022-10-18T11:54:09.579Z,17.6
2022-10-18T11:57:09.711Z,17.6
2022-10-18T12:00:09.708Z,17.5
2022-10-18T12:03:10.309Z,17.3
2022-10-18T12:06:09.706Z,17.1
2022-10-18T12:09:09.546Z,17
2022-10-18T12:12:09.543Z,17.3
2022-10-18T12:15:09.638Z,17.4
2022-10-18T12:18:09.660Z,17.3
2022-10-18T12:21:09.741Z,17.2
2022-10-18T12:24:09.557Z,17.1
2022-10-18T12:27:09.552Z,16.9
2022-10-18T12:30:09.641Z,16.7
2022-10-18T12:33:35.987Z,16.5
2022-10-18T12:36:09.665Z,16.4
2022-10-18T12:39:09.587Z,16.3
2022-10-18T12:42:09.620Z,16.3
2022-10-18T12:45:09.617Z,16.4
2022-10-18T12:48:09.643Z,16.6
2022-10-18T12:51:09.606Z,16.8
2022-10-18T12:54:09.523Z,16.9
2022-10-18T12:57:09.692Z,16.9
2022-10-18T13:00:09.723Z,16.9
2022-10-18T13:03:09.595Z,17
2022-10-18T13:06:15.557Z,17
2022-10-18T13:09:09.766Z,16.9
2022-10-18T13:12:11.186Z,16.9
2022-10-18T13:15:38.800Z,17
2022-10-18T13:18:09.556Z,16.8
2022-10-18T13:21:09.562Z,16.8
2022-10-18T13:24:09.619Z,16.8
2022-10-18T13:27:44.610Z,17
2022-10-18T13:30:09.657Z,17.2
2022-10-18T13:33:09.537Z,17.2
2022-10-18T13:36:09.602Z,17.1
2022-10-18T13:39:09.592Z,17.1
2022-10-18T13:42:09.607Z,17.1
2022-10-18T13:45:09.544Z,17
2022-10-18T13:48:09.546Z,17.1
2022-10-18T13:51:09.571Z,17.1
2022-10-18T13:54:09.671Z,17.2
2022-10-18T13:57:09.636Z,17.1
2022-10-18T14:00:09.716Z,17.2
2022-10-18T14:03:56.666Z,17.4
2022-10-18T14:06:09.569Z,17.4
2022-10-18T14:09:54.213Z,17.8
2022-10-18T14:12:09.586Z,17.7
2022-10-18T14:15:09.640Z,17.8
2022-10-18T14:18:09.551Z,18
2022-10-18T14:21:35.386Z,18.2
2022-10-18T14:24:09.522Z,18.4
2022-10-18T14:27:09.588Z,18.1
2022-10-18T14:30:09.658Z,17.6
2022-10-18T14:33:09.595Z,17.4
2022-10-18T14:36:14.488Z,17.2
2022-10-18T14:39:09.552Z,17.4
2022-10-18T14:42:09.571Z,17.4
2022-10-18T14:48:09.964Z,17.4
2022-10-18T14:51:09.871Z,17.3
2022-10-18T14:54:10.036Z,17.4
2022-10-18T14:57:09.778Z,17.3
2022-10-18T15:00:09.818Z,17.1
2022-10-18T15:03:09.574Z,17.1
2022-10-18T15:06:09.589Z,16.9
2022-10-18T15:09:09.583Z,16.8
2022-10-18T15:12:09.607Z,16.7
2022-10-18T15:15:09.596Z,16.5
2022-10-18T15:18:09.655Z,16.3
2022-10-18T15:21:09.541Z,16.1
2022-10-18T15:24:09.587Z,15.9
2022-10-18T15:27:09.529Z,15.8
2022-10-18T15:30:09.838Z,15.6
2022-10-18T15:33:09.583Z,15.6
2022-10-18T15:36:09.562Z,15.4
2022-10-18T15:39:09.506Z,15.3
2022-10-18T15:42:09.531Z,15.1
2022-10-18T15:45:09.592Z,15
2022-10-18T15:48:09.499Z,14.9
2022-10-18T15:51:09.581Z,14.7
2022-10-18T15:54:09.648Z,14.6
2022-10-18T15:57:09.553Z,14.4
2022-10-18T16:00:09.694Z,14.3
2022-10-18T16:03:09.542Z,14.1
2022-10-18T16:06:10.575Z,13.9
2022-10-18T16:09:09.539Z,13.8
2022-10-18T16:12:09.706Z,13.6
2022-10-18T16:15:09.555Z,13.5
2022-10-18T16:18:09.659Z,13.5
2022-10-18T16:21:09.467Z,13.5
2022-10-18T16:24:09.558Z,13.4
2022-10-18T16:27:10.023Z,13.4
2022-10-18T16:30:15.198Z,13.3
2022-10-18T16:33:09.463Z,13.1
2022-10-18T16:36:09.596Z,13.1
2022-10-18T16:39:09.623Z,12.9
2022-10-18T16:42:09.555Z,12.8
2022-10-18T16:45:09.548Z,12.7
2022-10-18T16:48:09.535Z,12.7
2022-10-18T16:51:09.483Z,12.6
2022-10-18T16:54:09.763Z,12.6
2022-10-18T16:57:09.498Z,12.4
2022-10-18T17:00:09.688Z,12.4
2022-10-18T17:03:09.538Z,12.2
2022-10-18T17:06:09.496Z,12.1
2022-10-18T17:09:09.578Z,11.9
2022-10-18T17:12:09.541Z,11.8
2022-10-18T17:15:09.517Z,11.8
2022-10-18T17:18:09.514Z,11.8
2022-10-18T17:21:09.442Z,11.7
2022-10-18T17:24:09.661Z,11.7
2022-10-18T17:27:09.487Z,11.5
2022-10-18T17:30:09.543Z,11.4
2022-10-18T17:33:12.971Z,11.3
2022-10-18T17:36:09.546Z,11.1
2022-10-18T17:39:09.560Z,11.1
2022-10-18T17:42:09.554Z,11.1
2022-10-18T17:45:09.582Z,11.1
2022-10-18T17:48:09.577Z,11.2
2022-10-18T17:51:09.519Z,11.1
2022-10-18T17:54:12.702Z,10.9
2022-10-18T17:57:09.509Z,10.8
2022-10-18T18:00:09.525Z,10.7
2022-10-18T18:03:10.002Z,10.8
2022-10-18T18:06:09.577Z,10.8
2022-10-18T18:09:09.434Z,10.8
2022-10-18T18:12:09.558Z,10.7
2022-10-18T18:15:09.443Z,10.6
2022-10-18T18:18:09.541Z,10.6
2022-10-18T18:21:09.533Z,10.4
2022-10-18T18:24:09.526Z,10.5
2022-10-18T18:27:09.496Z,10.6
2022-10-18T18:30:09.573Z,10.5
2022-10-18T18:33:09.534Z,10.6
2022-10-18T18:36:09.554Z,10.6
2022-10-18T18:39:09.562Z,10.5
2022-10-18T18:42:09.510Z,10.5
2022-10-18T18:45:09.510Z,10.4
2022-10-18T18:48:09.470Z,10.3
2022-10-18T18:51:09.602Z,10
2022-10-18T18:54:09.607Z,9.8
2022-10-18T18:57:09.524Z,9.6
2022-10-18T19:00:09.583Z,9.4
2022-10-18T19:03:09.487Z,9.3
2022-10-18T19:06:10.857Z,9.1
2022-10-18T19:09:09.526Z,9
2022-10-18T19:12:09.956Z,8.9
2022-10-18T19:15:09.480Z,9.1
2022-10-18T19:18:09.541Z,9.3
2022-10-18T19:21:09.458Z,9.4
2022-10-18T19:24:09.517Z,9.5
2022-10-18T19:27:09.560Z,9.6
2022-10-18T19:30:09.519Z,9.6
2022-10-18T19:33:12.599Z,9.6
2022-10-18T19:36:09.527Z,9.6
2022-10-18T19:39:09.522Z,9.4
2022-10-18T19:42:09.506Z,9.3
2022-10-18T19:45:09.592Z,9.1
2022-10-18T19:48:12.418Z,8.9
2022-10-18T19:51:14.094Z,8.6
2022-10-18T19:54:09.482Z,8.4
2022-10-18T19:57:09.498Z,8.3
2022-10-18T20:00:22.044Z,8.1
2022-10-18T20:03:09.513Z,7.9
2022-10-18T20:06:09.526Z,7.8
2022-10-18T20:09:10.873Z,7.7
2022-10-18T20:12:09.502Z,7.6
2022-10-18T20:15:09.983Z,7.5
2022-10-18T20:18:09.582Z,7.4
2022-10-18T20:21:09.486Z,7.4
2022-10-18T20:24:09.559Z,7.3
2022-10-18T20:27:09.467Z,7.3
2022-10-18T20:30:15.771Z,7.3
2022-10-18T20:33:09.510Z,7.2
2022-10-18T20:39:09.537Z,7.3
2022-10-18T20:42:09.565Z,7.3
2022-10-18T20:45:10.977Z,7.3
2022-10-18T20:48:09.481Z,7.2
2022-10-18T20:51:09.550Z,7.2
2022-10-18T20:54:09.644Z,7.1
2022-10-18T20:57:09.500Z,7.1
2022-10-18T21:00:09.521Z,7.1
2022-10-18T21:03:09.781Z,7
2022-10-18T21:06:09.577Z,6.9
2022-10-18T21:09:09.460Z,7
2022-10-18T21:15:09.736Z,7.7
2022-10-18T21:18:10.017Z,8.1
2022-10-18T21:21:09.861Z,8.1
2022-10-18T21:24:16.584Z,7.9
2022-10-18T21:27:09.512Z,7.6
2022-10-18T21:30:09.847Z,7.7
2022-10-18T21:33:09.583Z,8
2022-10-18T21:36:09.464Z,8.1
2022-10-18T21:39:09.586Z,8.1
2022-10-18T21:42:09.497Z,7.8
2022-10-18T21:45:09.512Z,7.6
2022-10-18T21:48:09.552Z,7.4
2022-10-18T21:51:09.493Z,7.2
2022-10-18T21:54:09.521Z,7.1
2022-10-18T21:57:09.547Z,6.9
2022-10-18T22:00:09.819Z,6.9
2022-10-18T22:03:09.527Z,6.9
2022-10-18T22:06:09.512Z,6.9
2022-10-18T22:09:09.524Z,6.8
2022-10-18T22:12:12.895Z,7.1
2022-10-18T22:15:09.449Z,7.4
2022-10-18T22:18:09.529Z,7.7
2022-10-18T22:21:09.471Z,7.9
2022-10-18T22:24:09.459Z,7.9
2022-10-18T22:27:09.554Z,8.1
2022-10-18T22:30:09.586Z,8.1
2022-10-18T22:33:09.467Z,8.3
2022-10-18T22:36:09.575Z,8.4
2022-10-18T22:39:10.129Z,8.4
2022-10-18T22:42:09.509Z,8.5
2022-10-18T22:45:09.463Z,8.6
2022-10-18T22:48:09.520Z,8.6
2022-10-18T22:51:09.446Z,8.6
2022-10-18T22:54:09.511Z,8.8
2022-10-18T22:57:09.492Z,8.8
2022-10-18T23:00:09.523Z,8.8
2022-10-18T23:03:09.566Z,8.9
2022-10-18T23:06:09.514Z,8.8
2022-10-18T23:09:09.540Z,8.8
2022-10-18T23:12:09.512Z,8.8
2022-10-18T23:15:09.461Z,8.8
2022-10-18T23:18:09.470Z,8.8
2022-10-18T23:21:09.511Z,8.9
2022-10-18T23:24:09.512Z,8.9
2022-10-18T23:27:09.565Z,8.9
2022-10-18T23:30:09.592Z,8.9
2022-10-18T23:33:09.472Z,8.9
2022-10-18T23:36:09.523Z,8.9
2022-10-18T23:39:09.506Z,8.9
2022-10-18T23:42:09.458Z,8.9
2022-10-18T23:45:09.496Z,8.9
2022-10-18T23:48:09.543Z,8.8
2022-10-18T23:51:09.436Z,8.8
2022-10-18T23:54:09.479Z,8.8
2022-10-18T23:57:09.464Z,8.8
